createdAt,value
2018-09-25T00:00:01.199Z,8.60
2018-09-25T00:02:35.094Z,8.60
2018-09-25T00:05:09.081Z,8.60
2018-09-25T00:07:42.751Z,8.60
2018-09-25T00:10:16.774Z,8.70
2018-09-25T00:12:50.412Z,8.60
2018-09-25T00:15:24.309Z,8.60
2018-09-25T00:17:57.983Z,8.60
2018-09-25T00:20:31.684Z,8.60
2018-09-25T00:23:05.302Z,8.60
2018-09-25T00:25:39.210Z,8.60
2018-09-25T00:28:12.897Z,8.60
2018-09-25T00:30:46.771Z,8.60
2018-09-25T00:33:20.613Z,8.60
2018-09-25T00:35:54.539Z,8.60
2018-09-25T00:38:28.364Z,8.60
2018-09-25T00:41:02.234Z,8.60
2018-09-25T00:43:35.945Z,8.60
2018-09-25T00:46:09.809Z,8.60
2018-09-25T00:48:43.563Z,8.60
2018-09-25T00:51:17.227Z,8.60
2018-09-25T00:53:50.886Z,8.40
2018-09-25T00:56:24.691Z,8.40
2018-09-25T00:58:58.488Z,8.40
2018-09-25T01:01:32.243Z,8.40
2018-09-25T01:04:06.105Z,8.50
2018-09-25T01:06:39.887Z,8.40
2018-09-25T01:09:14.095Z,8.30
2018-09-25T01:11:47.825Z,8.20
2018-09-25T01:14:21.565Z,8.20
2018-09-25T01:16:55.230Z,8.20
2018-09-25T01:19:28.918Z,8.20
2018-09-25T01:22:02.520Z,8.20
2018-09-25T01:24:36.223Z,8.20
2018-09-25T01:27:09.903Z,8.20
2018-09-25T01:29:43.575Z,8.20
2018-09-25T01:32:17.316Z,8.20
2018-09-25T01:34:51.128Z,8.20
2018-09-25T01:37:24.845Z,8.20
2018-09-25T01:39:58.524Z,8.10
2018-09-25T01:42:32.232Z,8.10
2018-09-25T01:45:06.021Z,8.10
2018-09-25T01:47:39.623Z,8.10
2018-09-25T01:50:13.532Z,8.10
2018-09-25T01:52:47.335Z,8.00
2018-09-25T01:55:21.114Z,8.10
2018-09-25T01:57:55.020Z,8.10
2018-09-25T02:00:28.824Z,8.10
2018-09-25T02:03:02.647Z,8.00
2018-09-25T02:05:36.547Z,8.00
2018-09-25T02:08:10.768Z,8.00
2018-09-25T02:10:44.510Z,7.90
2018-09-25T02:13:18.215Z,7.90
2018-09-25T02:15:51.888Z,7.90
2018-09-25T02:18:25.705Z,7.90
2018-09-25T02:20:59.493Z,7.90
2018-09-25T02:23:33.217Z,7.90
2018-09-25T02:26:07.091Z,7.90
2018-09-25T02:28:40.768Z,7.90
2018-09-25T02:31:14.576Z,7.90
2018-09-25T02:33:48.352Z,7.90
2018-09-25T02:36:22.026Z,7.90
2018-09-25T02:38:55.876Z,7.90
2018-09-25T02:41:29.514Z,7.90
2018-09-25T02:44:03.282Z,7.90
2018-09-25T02:46:37.004Z,7.90
2018-09-25T02:49:10.880Z,7.90
2018-09-25T02:51:44.739Z,7.90
2018-09-25T02:54:18.520Z,7.80
2018-09-25T02:56:52.219Z,7.70
2018-09-25T02:59:25.908Z,7.50
2018-09-25T03:01:59.948Z,7.50
2018-09-25T03:04:33.771Z,7.50
2018-09-25T03:07:07.465Z,7.50
2018-09-25T03:09:41.199Z,7.40
2018-09-25T03:12:14.969Z,7.50
2018-09-25T03:14:48.824Z,7.40
2018-09-25T03:17:22.420Z,7.40
2018-09-25T03:19:56.312Z,7.40
2018-09-25T03:22:30.218Z,7.50
2018-09-25T03:25:04.091Z,7.50
2018-09-25T03:27:37.824Z,7.50
2018-09-25T03:30:12.252Z,7.50
2018-09-25T03:32:45.927Z,7.50
2018-09-25T03:35:19.777Z,7.50
2018-09-25T03:37:53.543Z,7.50
2018-09-25T03:40:27.381Z,7.50
2018-09-25T03:43:01.031Z,7.50
2018-09-25T03:45:34.875Z,7.40
2018-09-25T03:48:08.856Z,7.40
2018-09-25T03:50:42.695Z,7.40
2018-09-25T03:53:16.432Z,7.40
2018-09-25T03:55:50.135Z,7.40
2018-09-25T03:58:23.997Z,7.40
2018-09-25T04:00:57.936Z,7.40
2018-09-25T04:03:31.729Z,7.40
2018-09-25T04:06:05.463Z,7.40
2018-09-25T04:08:39.147Z,7.40
2018-09-25T04:11:12.803Z,7.40
2018-09-25T04:13:46.645Z,7.40
2018-09-25T04:16:20.658Z,7.30
2018-09-25T04:18:54.533Z,7.30
2018-09-25T04:21:28.319Z,7.30
2018-09-25T04:24:01.989Z,7.30
2018-09-25T04:26:35.739Z,7.30
2018-09-25T04:29:09.566Z,7.20
2018-09-25T04:31:43.546Z,7.30
2018-09-25T04:34:17.508Z,7.30
2018-09-25T04:36:51.213Z,7.30
2018-09-25T04:39:24.905Z,7.20
2018-09-25T04:41:58.571Z,7.10
2018-09-25T04:44:32.428Z,7.10
2018-09-25T04:47:06.544Z,7.10
2018-09-25T04:49:40.196Z,7.00
2018-09-25T04:52:14.042Z,7.00
2018-09-25T04:54:48.012Z,7.00
2018-09-25T04:57:21.944Z,7.00
2018-09-25T04:59:55.673Z,7.00
2018-09-25T05:02:29.498Z,7.00
2018-09-25T05:05:03.355Z,7.00
2018-09-25T05:07:37.108Z,7.00
2018-09-25T05:10:10.907Z,7.10
2018-09-25T05:12:44.767Z,7.10
2018-09-25T05:15:18.631Z,7.00
2018-09-25T05:17:53.856Z,7.00
2018-09-25T05:20:27.656Z,7.10
2018-09-25T05:23:01.477Z,7.00
2018-09-25T05:25:35.317Z,7.00
2018-09-25T05:28:09.284Z,7.00
2018-09-25T05:30:43.032Z,7.00
2018-09-25T05:33:16.715Z,7.00
2018-09-25T05:35:50.499Z,7.10
2018-09-25T05:38:25.206Z,7.10
2018-09-25T05:40:58.958Z,7.10
2018-09-25T05:43:32.846Z,7.20
2018-09-25T05:46:06.617Z,7.10
2018-09-25T05:48:40.520Z,7.10
2018-09-25T05:51:14.396Z,7.20
2018-09-25T05:53:48.128Z,7.10
2018-09-25T05:56:21.946Z,7.10
2018-09-25T05:58:55.772Z,7.10
2018-09-25T06:01:29.588Z,7.10
2018-09-25T06:04:03.427Z,7.10
2018-09-25T06:06:37.307Z,7.10
2018-09-25T06:09:13.152Z,7.20
2018-09-25T06:11:47.211Z,7.20
2018-09-25T06:14:21.004Z,7.30
2018-09-25T06:16:54.899Z,7.30
2018-09-25T06:19:28.704Z,7.30
2018-09-25T06:22:02.474Z,7.40
2018-09-25T06:24:36.215Z,7.40
2018-09-25T06:27:10.161Z,7.40
2018-09-25T06:29:43.948Z,7.50
2018-09-25T06:32:17.816Z,7.50
2018-09-25T06:34:51.766Z,7.60
2018-09-25T06:37:26.040Z,7.70
2018-09-25T06:39:59.729Z,7.70
2018-09-25T06:42:33.647Z,7.80
2018-09-25T06:45:07.453Z,7.90
2018-09-25T06:47:41.148Z,7.90
2018-09-25T06:50:15.082Z,8.00
2018-09-25T06:52:48.982Z,8.10
2018-09-25T06:55:22.845Z,8.10
2018-09-25T06:57:56.643Z,8.20
2018-09-25T07:00:30.609Z,8.30
2018-09-25T07:03:04.606Z,8.40
2018-09-25T07:05:38.558Z,8.50
2018-09-25T07:08:12.543Z,8.60
2018-09-25T07:10:46.265Z,8.70
2018-09-25T07:13:20.003Z,8.70
2018-09-25T07:15:53.782Z,8.70
2018-09-25T07:18:27.558Z,8.80
2018-09-25T07:21:01.298Z,8.90
2018-09-25T07:23:35.019Z,8.90
2018-09-25T07:26:08.784Z,8.80
2018-09-25T07:28:42.532Z,8.90
2018-09-25T07:31:16.383Z,9.30
2018-09-25T07:33:50.270Z,9.70
2018-09-25T07:36:24.056Z,9.80
2018-09-25T07:38:57.781Z,9.50
2018-09-25T07:41:31.559Z,9.20
2018-09-25T07:44:05.590Z,9.20
2018-09-25T07:46:39.319Z,9.30
2018-09-25T07:49:13.143Z,9.40
2018-09-25T07:51:46.944Z,9.50
2018-09-25T07:54:20.661Z,9.50
2018-09-25T07:56:54.756Z,9.50
2018-09-25T07:59:28.670Z,9.60
2018-09-25T08:02:02.518Z,9.60
2018-09-25T08:04:36.467Z,9.70
2018-09-25T08:07:10.609Z,9.70
2018-09-25T08:09:44.410Z,9.80
2018-09-25T08:12:18.160Z,10.00
2018-09-25T08:14:51.977Z,10.10
2018-09-25T08:17:25.848Z,10.10
2018-09-25T08:19:59.572Z,10.30
2018-09-25T08:22:34.011Z,10.40
2018-09-25T08:25:07.892Z,10.50
2018-09-25T08:27:41.667Z,10.60
2018-09-25T08:30:15.536Z,10.70
2018-09-25T08:32:49.339Z,10.80
2018-09-25T08:35:23.024Z,10.90
2018-09-25T08:37:56.768Z,10.90
2018-09-25T08:40:30.418Z,10.90
2018-09-25T08:43:04.256Z,11.00
2018-09-25T08:45:38.114Z,11.00
2018-09-25T08:48:11.821Z,11.00
2018-09-25T08:50:45.555Z,11.00
2018-09-25T08:53:19.192Z,11.10
2018-09-25T08:55:52.896Z,11.10
2018-09-25T08:58:26.488Z,11.20
2018-09-25T09:01:00.408Z,11.30
2018-09-25T09:03:35.060Z,11.40
2018-09-25T09:06:08.810Z,11.40
2018-09-25T09:08:42.548Z,11.50
2018-09-25T09:11:16.191Z,11.70
2018-09-25T09:13:49.967Z,11.80
2018-09-25T09:16:23.754Z,11.90
2018-09-25T09:18:57.430Z,12.00
2018-09-25T09:21:31.096Z,12.10
2018-09-25T09:24:04.920Z,12.10
2018-09-25T09:26:38.619Z,12.20
2018-09-25T09:29:12.436Z,12.20
2018-09-25T09:31:46.270Z,12.20
2018-09-25T09:34:20.220Z,12.20
2018-09-25T09:36:53.797Z,12.10
2018-09-25T09:39:27.723Z,12.00
2018-09-25T09:42:01.731Z,12.20
2018-09-25T09:44:35.231Z,12.40
2018-09-25T09:47:09.195Z,12.60
2018-09-25T09:49:42.905Z,12.70
2018-09-25T09:52:16.865Z,12.80
2018-09-25T09:54:50.573Z,12.90
2018-09-25T09:57:24.292Z,12.90
2018-09-25T09:59:58.039Z,13.00
2018-09-25T10:02:31.770Z,13.00
2018-09-25T10:05:05.369Z,13.00
2018-09-25T10:07:39.073Z,12.90
2018-09-25T10:10:12.993Z,13.00
2018-09-25T10:12:46.689Z,13.00
2018-09-25T10:15:20.420Z,13.00
2018-09-25T10:17:54.186Z,13.00
2018-09-25T10:20:27.951Z,12.90
2018-09-25T10:23:01.611Z,12.90
2018-09-25T10:25:35.481Z,12.80
2018-09-25T10:28:09.466Z,12.80
2018-09-25T10:30:43.278Z,12.90
2018-09-25T10:33:17.183Z,13.00
2018-09-25T10:35:50.807Z,13.10
2018-09-25T10:38:24.557Z,13.00
2018-09-25T10:40:58.328Z,13.00
2018-09-25T10:43:32.099Z,12.90
2018-09-25T10:46:05.803Z,12.90
2018-09-25T10:48:39.770Z,12.80
2018-09-25T10:51:13.585Z,12.90
2018-09-25T10:53:47.231Z,12.90
2018-09-25T10:56:20.971Z,12.90
2018-09-25T10:58:54.698Z,13.00
2018-09-25T11:01:28.684Z,13.10
2018-09-25T11:04:02.361Z,13.10
2018-09-25T11:06:36.159Z,13.10
2018-09-25T11:09:13.555Z,13.30
2018-09-25T11:11:48.083Z,13.40
2018-09-25T11:14:21.845Z,13.50
2018-09-25T11:16:55.712Z,13.50
2018-09-25T11:19:29.484Z,13.50
2018-09-25T11:22:03.280Z,13.60
2018-09-25T11:24:37.047Z,13.70
2018-09-25T11:27:10.795Z,13.70
2018-09-25T11:29:44.651Z,13.70
2018-09-25T11:32:18.471Z,13.70
2018-09-25T11:34:52.460Z,13.80
2018-09-25T11:37:26.313Z,13.80
2018-09-25T11:40:00.023Z,13.90
2018-09-25T11:42:33.884Z,13.80
2018-09-25T11:45:07.748Z,13.70
2018-09-25T11:47:41.616Z,13.70
2018-09-25T11:50:15.390Z,13.70
2018-09-25T11:52:49.270Z,13.80
2018-09-25T11:55:22.981Z,13.80
2018-09-25T11:57:56.643Z,13.90
2018-09-25T12:00:30.432Z,13.90
2018-09-25T12:03:04.196Z,14.00
2018-09-25T12:05:37.864Z,13.80
2018-09-25T12:08:11.728Z,13.70
2018-09-25T12:10:45.459Z,13.90
2018-09-25T12:13:19.382Z,13.80
2018-09-25T12:15:52.998Z,13.80
2018-09-25T12:18:26.870Z,13.90
2018-09-25T12:21:00.515Z,13.90
2018-09-25T12:23:34.337Z,14.00
2018-09-25T12:26:08.184Z,14.00
2018-09-25T12:28:41.896Z,14.10
2018-09-25T12:31:15.489Z,14.20
2018-09-25T12:33:49.232Z,14.20
2018-09-25T12:36:22.950Z,14.20
2018-09-25T12:38:56.670Z,14.30
2018-09-25T12:41:30.424Z,14.30
2018-09-25T12:44:04.301Z,14.30
2018-09-25T12:46:38.108Z,14.30
2018-09-25T12:49:12.801Z,14.30
2018-09-25T12:51:46.511Z,14.30
2018-09-25T12:54:20.216Z,14.30
2018-09-25T12:56:54.056Z,14.30
2018-09-25T12:59:27.860Z,14.30
2018-09-25T13:02:01.496Z,14.40
2018-09-25T13:04:35.267Z,14.50
2018-09-25T13:07:09.068Z,14.50
2018-09-25T13:09:43.029Z,14.50
2018-09-25T13:12:16.830Z,14.50
2018-09-25T13:14:50.573Z,14.50
2018-09-25T13:17:24.415Z,14.50
2018-09-25T13:19:58.126Z,14.50
2018-09-25T13:22:31.813Z,14.50
2018-09-25T13:25:05.758Z,14.50
2018-09-25T13:27:39.740Z,14.50
2018-09-25T13:30:13.575Z,14.60
2018-09-25T13:32:47.444Z,14.60
2018-09-25T13:35:21.291Z,14.60
2018-09-25T13:37:55.051Z,14.60
2018-09-25T13:40:28.864Z,14.70
2018-09-25T13:43:02.527Z,14.70
2018-09-25T13:45:36.279Z,14.80
2018-09-25T13:48:09.954Z,14.90
2018-09-25T13:50:43.747Z,14.80
2018-09-25T13:53:17.399Z,14.90
2018-09-25T13:55:51.213Z,14.90
2018-09-25T13:58:24.871Z,14.90
2018-09-25T14:00:58.624Z,15.00
2018-09-25T14:03:32.462Z,15.10
2018-09-25T14:06:06.331Z,15.20
2018-09-25T14:08:39.926Z,15.20
2018-09-25T14:11:13.768Z,15.20
2018-09-25T14:13:47.582Z,15.20
2018-09-25T14:16:21.388Z,15.30
2018-09-25T14:18:55.138Z,15.30
2018-09-25T14:21:28.813Z,15.20
2018-09-25T14:24:02.610Z,15.20
2018-09-25T14:26:36.528Z,15.20
2018-09-25T14:29:10.403Z,15.20
2018-09-25T14:31:44.180Z,15.20
2018-09-25T14:34:17.904Z,15.20
2018-09-25T14:36:51.664Z,15.30
2018-09-25T14:39:25.603Z,15.40
2018-09-25T14:41:59.317Z,15.40
2018-09-25T14:44:33.211Z,15.60
2018-09-25T14:47:07.018Z,16.10
2018-09-25T14:49:40.801Z,16.60
2018-09-25T14:52:14.611Z,17.00
2018-09-25T14:54:48.260Z,17.40
2018-09-25T14:57:22.024Z,18.00
2018-09-25T14:59:55.623Z,18.40
2018-09-25T15:02:29.451Z,18.50
2018-09-25T15:05:03.241Z,18.70
2018-09-25T15:07:36.951Z,19.30
2018-09-25T15:10:10.805Z,19.60
2018-09-25T15:12:44.499Z,18.80
2018-09-25T15:15:18.298Z,18.20
2018-09-25T15:17:51.984Z,17.90
2018-09-25T15:20:25.695Z,17.60
2018-09-25T15:22:59.462Z,17.30
2018-09-25T15:25:33.237Z,16.70
2018-09-25T15:28:07.306Z,16.30
2018-09-25T15:30:41.062Z,16.20
2018-09-25T15:33:14.796Z,16.00
2018-09-25T15:35:48.597Z,15.90
2018-09-25T15:38:22.433Z,15.70
2018-09-25T15:40:56.207Z,15.60
2018-09-25T15:43:30.038Z,15.50
2018-09-25T15:46:03.660Z,15.50
2018-09-25T15:48:37.551Z,15.50
2018-09-25T15:51:11.580Z,15.30
2018-09-25T15:53:45.506Z,15.20
2018-09-25T15:56:19.259Z,15.20
2018-09-25T15:58:53.113Z,15.20
2018-09-25T16:01:26.904Z,15.10
2018-09-25T16:04:00.668Z,15.10
2018-09-25T16:06:34.515Z,15.00
2018-09-25T16:09:08.407Z,14.90
2018-09-25T16:11:42.305Z,14.80
2018-09-25T16:14:16.165Z,14.80
2018-09-25T16:16:49.883Z,14.80
2018-09-25T16:19:23.714Z,14.80
2018-09-25T16:21:57.712Z,14.80
2018-09-25T16:24:31.379Z,14.70
2018-09-25T16:27:05.200Z,14.60
2018-09-25T16:29:39.191Z,14.60
2018-09-25T16:32:12.987Z,14.60
2018-09-25T16:34:46.811Z,14.50
2018-09-25T16:37:20.621Z,14.50
2018-09-25T16:39:54.426Z,14.50
2018-09-25T16:42:28.285Z,14.40
2018-09-25T16:45:02.137Z,14.30
2018-09-25T16:47:35.870Z,14.20
2018-09-25T16:50:09.796Z,14.20
2018-09-25T16:52:43.663Z,14.10
2018-09-25T16:55:17.464Z,14.10
2018-09-25T16:57:51.286Z,14.00
2018-09-25T17:00:25.064Z,13.90
2018-09-25T17:02:58.932Z,13.90
2018-09-25T17:05:32.919Z,13.90
2018-09-25T17:08:06.869Z,13.80
2018-09-25T17:10:40.794Z,13.70
2018-09-25T17:13:14.646Z,13.70
2018-09-25T17:15:48.332Z,13.60
2018-09-25T17:18:22.172Z,13.50
2018-09-25T17:20:56.013Z,13.50
2018-09-25T17:23:29.762Z,13.50
2018-09-25T17:26:03.562Z,13.40
2018-09-25T17:28:37.466Z,13.40
2018-09-25T17:31:11.279Z,13.30
2018-09-25T17:33:45.089Z,13.30
2018-09-25T17:36:18.969Z,13.20
2018-09-25T17:38:52.752Z,13.10
2018-09-25T17:41:33.367Z,13.10
2018-09-25T17:44:07.052Z,13.10
2018-09-25T17:46:41.137Z,13.00
2018-09-25T17:49:14.937Z,12.90
2018-09-25T17:51:48.789Z,12.90
2018-09-25T17:54:23.326Z,12.90
2018-09-25T17:56:57.060Z,12.80
2018-09-25T17:59:30.784Z,12.80
2018-09-25T18:02:04.496Z,12.70
2018-09-25T18:04:38.397Z,12.70
2018-09-25T18:07:12.210Z,12.70
2018-09-25T18:09:46.031Z,12.60
2018-09-25T18:12:19.985Z,12.60
2018-09-25T18:14:53.861Z,12.60
2018-09-25T18:17:27.756Z,12.50
2018-09-25T18:20:01.427Z,12.40
2018-09-25T18:22:35.720Z,12.40
2018-09-25T18:25:09.578Z,12.40
2018-09-25T18:27:43.549Z,12.40
2018-09-25T18:30:17.242Z,12.40
2018-09-25T18:32:50.981Z,12.30
2018-09-25T18:35:24.857Z,12.30
2018-09-25T18:37:58.737Z,12.20
2018-09-25T18:40:32.727Z,12.20
2018-09-25T18:43:06.678Z,12.20
2018-09-25T18:45:40.693Z,12.10
2018-09-25T18:48:14.548Z,12.10
2018-09-25T18:50:48.360Z,12.00
2018-09-25T18:53:22.523Z,12.00
2018-09-25T18:55:56.422Z,12.00
2018-09-25T18:58:30.294Z,11.90
2018-09-25T19:01:48.052Z,11.90
2018-09-25T19:04:22.100Z,11.90
2018-09-25T19:06:55.880Z,11.70
2018-09-25T19:09:29.931Z,11.60
2018-09-25T19:12:06.704Z,11.50
2018-09-25T19:14:40.667Z,11.50
2018-09-25T19:17:14.489Z,11.40
2018-09-25T19:19:48.393Z,11.30
2018-09-25T19:22:22.246Z,11.40
2018-09-25T19:24:57.189Z,11.30
2018-09-25T19:27:31.200Z,11.30
2018-09-25T19:30:05.197Z,11.20
2018-09-25T19:32:39.072Z,11.20
2018-09-25T19:35:12.880Z,11.20
2018-09-25T19:37:46.889Z,11.10
2018-09-25T19:40:21.158Z,11.10
2018-09-25T19:42:55.057Z,11.10
2018-09-25T19:45:28.944Z,11.10
2018-09-25T19:48:02.819Z,11.00
2018-09-25T19:50:36.620Z,11.00
2018-09-25T19:53:10.697Z,11.00
2018-09-25T19:55:44.678Z,11.00
2018-09-25T19:58:18.633Z,11.00
2018-09-25T20:00:52.574Z,11.00
2018-09-25T20:03:26.714Z,10.90
2018-09-25T20:06:00.701Z,10.90
2018-09-25T20:08:34.677Z,10.80
2018-09-25T20:11:08.513Z,10.70
2018-09-25T20:13:42.285Z,10.70
2018-09-25T20:16:16.368Z,10.70
2018-09-25T20:18:50.262Z,10.70
2018-09-25T20:21:24.231Z,10.70
2018-09-25T20:23:58.049Z,10.70
2018-09-25T20:26:31.847Z,10.60
2018-09-25T20:29:05.847Z,10.50
2018-09-25T20:31:39.733Z,10.40
2018-09-25T20:34:13.830Z,10.40
2018-09-25T20:36:47.704Z,10.30
2018-09-25T20:39:21.566Z,10.40
2018-09-25T20:41:55.409Z,10.40
2018-09-25T20:44:30.247Z,10.30
2018-09-25T20:47:03.990Z,10.30
2018-09-25T20:49:37.705Z,10.10
2018-09-25T20:52:11.689Z,10.10
2018-09-25T20:54:45.400Z,10.00
2018-09-25T20:57:19.410Z,9.90
2018-09-25T20:59:53.107Z,10.00
2018-09-25T21:02:27.093Z,10.00
2018-09-25T21:05:00.808Z,9.80
2018-09-25T21:07:41.653Z,9.70
2018-09-25T21:10:15.637Z,9.70
2018-09-25T21:12:49.382Z,9.70
2018-09-25T21:15:23.376Z,9.60
2018-09-25T21:17:57.230Z,9.60
2018-09-25T21:20:31.148Z,9.60
2018-09-25T21:23:05.023Z,9.60
2018-09-25T21:25:39.105Z,9.60
2018-09-25T21:28:13.098Z,9.50
2018-09-25T21:30:47.028Z,9.40
2018-09-25T21:33:20.921Z,9.40
2018-09-25T21:35:54.791Z,9.30
2018-09-25T21:38:28.686Z,9.30
2018-09-25T21:41:02.689Z,9.30
2018-09-25T21:43:36.624Z,9.30
2018-09-25T21:46:10.445Z,9.20
2018-09-25T21:48:44.463Z,9.30
2018-09-25T21:51:18.399Z,9.20
2018-09-25T21:53:52.100Z,9.10
2018-09-25T21:56:26.017Z,9.20
2018-09-25T21:58:59.849Z,9.00
2018-09-25T22:01:33.778Z,9.00
2018-09-25T22:04:07.556Z,8.90
2018-09-25T22:06:41.431Z,8.80
2018-09-25T22:09:16.824Z,8.80
2018-09-25T22:11:50.769Z,8.80
2018-09-25T22:14:24.599Z,8.80
2018-09-25T22:16:58.438Z,8.80
2018-09-25T22:19:32.236Z,8.80
2018-09-25T22:22:06.077Z,8.70
2018-09-25T22:24:39.959Z,8.70
2018-09-25T22:27:13.979Z,8.60
2018-09-25T22:29:47.777Z,8.60
2018-09-25T22:32:21.663Z,8.60
2018-09-25T22:34:55.529Z,8.70
2018-09-25T22:37:29.299Z,8.70
2018-09-25T22:40:03.029Z,8.70
2018-09-25T22:42:36.725Z,8.70
2018-09-25T22:45:10.646Z,8.60
2018-09-25T22:47:44.459Z,8.60
2018-09-25T22:50:18.335Z,8.60
2018-09-25T22:52:52.303Z,8.60
2018-09-25T22:55:26.203Z,8.60
2018-09-25T22:58:00.101Z,8.50
2018-09-25T23:00:33.770Z,8.50
2018-09-25T23:03:07.604Z,8.50
2018-09-25T23:05:42.171Z,8.40
2018-09-25T23:08:15.931Z,8.30
2018-09-25T23:10:49.843Z,8.30
2018-09-25T23:13:23.828Z,8.30
2018-09-25T23:15:57.589Z,8.20
2018-09-25T23:18:31.424Z,8.20
2018-09-25T23:21:05.290Z,8.20
2018-09-25T23:23:39.072Z,8.20
2018-09-25T23:26:12.928Z,8.20
2018-09-25T23:28:46.700Z,8.10
2018-09-25T23:31:20.541Z,8.10
2018-09-25T23:33:54.295Z,8.10
2018-09-25T23:36:28.074Z,8.10
2018-09-25T23:38:59.001Z,8.00
2018-09-25T23:41:31.744Z,8.10
2018-09-25T23:44:20.098Z,8.10
2018-09-25T23:46:55.716Z,8.00
2018-09-25T23:49:31.823Z,8.00
2018-09-25T23:52:09.735Z,8.00
2018-09-25T23:56:45.317Z,8.00
2018-09-25T23:59:24.242Z,8.00
